sensor_id;sensor_type;location;lat;lon;timestamp;pressure;altitude;pressure_sealevel;temperature
15144;BMP180;7672;50.834;6.286;2022-08-21T00:00:41;99883.50;;;20.10
15144;BMP180;7672;50.834;6.286;2022-08-21T00:03:11;99889.47;;;20.11
15144;BMP180;7672;50.834;6.286;2022-08-21T00:05:45;99889.47;;;20.11
15144;BMP180;7672;50.834;6.286;2022-08-21T00:08:13;99883.53;;;20.09
15144;BMP180;7672;50.834;6.286;2022-08-21T00:10:42;99882.63;;;20.10
15144;BMP180;7672;50.834;6.286;2022-08-21T00:13:10;99878.38;;;20.09
15144;BMP180;7672;50.834;6.286;2022-08-21T00:15:40;99869.03;;;20.08
15144;BMP180;7672;50.834;6.286;2022-08-21T00:18:09;99875.94;;;20.06
15144;BMP180;7672;50.834;6.286;2022-08-21T00:20:39;99875.09;;;20.05
15144;BMP180;7672;50.834;6.286;2022-08-21T00:23:07;99861.47;;;20.03
15144;BMP180;7672;50.834;6.286;2022-08-21T00:25:34;99860.69;;;20.01
15144;BMP180;7672;50.834;6.286;2022-08-21T00:28:01;99860.81;;;19.97
15144;BMP180;7672;50.834;6.286;2022-08-21T00:30:30;99862.63;;;19.93
15144;BMP180;7672;50.834;6.286;2022-08-21T00:32:58;99863.56;;;19.91
15144;BMP180;7672;50.834;6.286;2022-08-21T00:35:31;99864.47;;;19.88
15144;BMP180;7672;50.834;6.286;2022-08-21T00:38:00;99866.31;;;19.85
15144;BMP180;7672;50.834;6.286;2022-08-21T00:40:38;99863.81;;;19.82
15144;BMP180;7672;50.834;6.286;2022-08-21T00:43:11;99856.34;;;19.76
15144;BMP180;7672;50.834;6.286;2022-08-21T00:45:38;99858.91;;;19.76
15144;BMP180;7672;50.834;6.286;2022-08-21T00:48:06;99855.53;;;19.74
15144;BMP180;7672;50.834;6.286;2022-08-21T00:50:45;99855.56;;;19.73
15144;BMP180;7672;50.834;6.286;2022-08-21T00:53:14;99841.94;;;19.71
15144;BMP180;7672;50.834;6.286;2022-08-21T00:55:42;99841.13;;;19.70
15144;BMP180;7672;50.834;6.286;2022-08-21T00:58:13;99848.75;;;19.72
15144;BMP180;7672;50.834;6.286;2022-08-21T01:00:46;99842.00;;;19.69
15144;BMP180;7672;50.834;6.286;2022-08-21T01:03:23;99845.44;;;19.68
15144;BMP180;7672;50.834;6.286;2022-08-21T01:05:53;99844.56;;;19.69
15144;BMP180;7672;50.834;6.286;2022-08-21T01:08:22;99844.56;;;19.69
15144;BMP180;7672;50.834;6.286;2022-08-21T01:10:52;99852.22;;;19.71
15144;BMP180;7672;50.834;6.286;2022-08-21T01:13:32;99843.63;;;19.72
15144;BMP180;7672;50.834;6.286;2022-08-21T01:16:04;99847.03;;;19.72
15144;BMP180;7672;50.834;6.286;2022-08-21T01:18:32;99841.91;;;19.72
15144;BMP180;7672;50.834;6.286;2022-08-21T01:21:18;99846.16;;;19.73
15144;BMP180;7672;50.834;6.286;2022-08-21T01:23:52;99846.09;;;19.75
15144;BMP180;7672;50.834;6.286;2022-08-21T01:26:28;99849.53;;;19.75
15144;BMP180;7672;50.834;6.286;2022-08-21T01:32:15;99854.69;;;19.74
15144;BMP180;7672;50.834;6.286;2022-08-21T01:34:45;99854.66;;;19.75
15144;BMP180;7672;50.834;6.286;2022-08-21T01:37:13;99850.41;;;19.74
15144;BMP180;7672;50.834;6.286;2022-08-21T01:39:43;99846.97;;;19.75
15144;BMP180;7672;50.834;6.286;2022-08-21T01:42:12;99846.91;;;19.77
15144;BMP180;7672;50.834;6.286;2022-08-21T01:44:42;99837.47;;;19.77
15144;BMP180;7672;50.834;6.286;2022-08-21T01:47:12;99840.09;;;19.76
15144;BMP180;7672;50.834;6.286;2022-08-21T01:49:45;99842.59;;;19.77
15144;BMP180;7672;50.834;6.286;2022-08-21T01:52:12;99849.53;;;19.75
15144;BMP180;7672;50.834;6.286;2022-08-21T01:54:42;99832.44;;;19.74
15144;BMP180;7672;50.834;6.286;2022-08-21T01:57:12;99841.03;;;19.73
15144;BMP180;7672;50.834;6.286;2022-08-21T01:59:40;99846.16;;;19.73
15144;BMP180;7672;50.834;6.286;2022-08-21T02:02:10;99845.31;;;19.73
15144;BMP180;7672;50.834;6.286;2022-08-21T02:04:39;99839.44;;;19.69
15144;BMP180;7672;50.834;6.286;2022-08-21T02:07:12;99842.00;;;19.69
15144;BMP180;7672;50.834;6.286;2022-08-21T02:09:40;99836.97;;;19.66
15144;BMP180;7672;50.834;6.286;2022-08-21T02:12:11;99837.84;;;19.65
15144;BMP180;7672;50.834;6.286;2022-08-21T02:14:39;99831.97;;;19.62
15144;BMP180;7672;50.834;6.286;2022-08-21T02:17:06;99835.47;;;19.59
15144;BMP180;7672;50.834;6.286;2022-08-21T02:19:37;99835.63;;;19.55
15144;BMP180;7672;50.834;6.286;2022-08-21T02:22:08;99837.38;;;19.53
15144;BMP180;7672;50.834;6.286;2022-08-21T02:24:37;99836.63;;;19.49
15144;BMP180;7672;50.834;6.286;2022-08-21T02:27:25;99836.78;;;19.45
15144;BMP180;7672;50.834;6.286;2022-08-21T02:29:56;99829.16;;;19.42
15144;BMP180;7672;50.834;6.286;2022-08-21T02:32:26;99833.44;;;19.41
15144;BMP180;7672;50.834;6.286;2022-08-21T02:35:00;99830.94;;;19.40
15144;BMP180;7672;50.834;6.286;2022-08-21T02:37:30;99827.56;;;19.38
15144;BMP180;7672;50.834;6.286;2022-08-21T02:40:03;99836.94;;;19.39
15144;BMP180;7672;50.834;6.286;2022-08-21T02:42:30;99837.00;;;19.37
15144;BMP180;7672;50.834;6.286;2022-08-21T02:45:04;99838.69;;;19.38
15144;BMP180;7672;50.834;6.286;2022-08-21T02:47:31;99837.81;;;19.38
15144;BMP180;7672;50.834;6.286;2022-08-21T02:50:00;99846.41;;;19.37
15144;BMP180;7672;50.834;6.286;2022-08-21T02:52:27;99858.31;;;19.38
15144;BMP180;7672;50.834;6.286;2022-08-21T02:54:54;99863.50;;;19.36
15144;BMP180;7672;50.834;6.286;2022-08-21T02:57:21;99852.47;;;19.33
15144;BMP180;7672;50.834;6.286;2022-08-21T02:59:48;99849.19;;;19.29
15144;BMP180;7672;50.834;6.286;2022-08-21T03:02:15;99846.75;;;19.25
15144;BMP180;7672;50.834;6.286;2022-08-21T03:04:45;99847.63;;;19.24
15144;BMP180;7672;50.834;6.286;2022-08-21T03:07:12;99847.66;;;19.23
15144;BMP180;7672;50.834;6.286;2022-08-21T03:09:40;99845.97;;;19.22
15144;BMP180;7672;50.834;6.286;2022-08-21T03:12:24;99835.78;;;19.20
15144;BMP180;7672;50.834;6.286;2022-08-21T03:14:55;99837.53;;;19.20
15144;BMP180;7672;50.834;6.286;2022-08-21T03:17:22;99837.53;;;19.20
15144;BMP180;7672;50.834;6.286;2022-08-21T03:19:56;99837.53;;;19.20
15144;BMP180;7672;50.834;6.286;2022-08-21T03:22:23;99835.72;;;19.22
15144;BMP180;7672;50.834;6.286;2022-08-21T03:24:52;99841.72;;;19.22
15144;BMP180;7672;50.834;6.286;2022-08-21T03:27:29;99835.72;;;19.22
15144;BMP180;7672;50.834;6.286;2022-08-21T03:30:09;99835.72;;;19.22
15144;BMP180;7672;50.834;6.286;2022-08-21T03:32:51;99836.59;;;19.22
15144;BMP180;7672;50.834;6.286;2022-08-21T03:35:21;99837.47;;;19.21
15144;BMP180;7672;50.834;6.286;2022-08-21T03:37:48;99835.72;;;19.23
15144;BMP180;7672;50.834;6.286;2022-08-21T03:40:19;99830.53;;;19.24
15144;BMP180;7672;50.834;6.286;2022-08-21T03:42:47;99833.97;;;19.23
15144;BMP180;7672;50.834;6.286;2022-08-21T03:45:22;99833.16;;;19.23
15144;BMP180;7672;50.834;6.286;2022-08-21T03:48:02;99843.34;;;19.24
15144;BMP180;7672;50.834;6.286;2022-08-21T03:50:36;99845.97;;;19.22
15144;BMP180;7672;50.834;6.286;2022-08-21T03:53:20;99844.34;;;19.21
15144;BMP180;7672;50.834;6.286;2022-08-21T03:55:56;99846.88;;;19.21
15144;BMP180;7672;50.834;6.286;2022-08-21T03:58:28;99843.53;;;19.19
15144;BMP180;7672;50.834;6.286;2022-08-21T04:00:59;99848.66;;;19.19
15144;BMP180;7672;50.834;6.286;2022-08-21T04:03:27;99846.09;;;19.19
15144;BMP180;7672;50.834;6.286;2022-08-21T04:05:55;99846.97;;;19.18
15144;BMP180;7672;50.834;6.286;2022-08-21T04:08:23;99852.03;;;19.19
15144;BMP180;7672;50.834;6.286;2022-08-21T04:10:55;99858.91;;;19.19
15144;BMP180;7672;50.834;6.286;2022-08-21T04:13:26;99855.50;;;19.18
15144;BMP180;7672;50.834;6.286;2022-08-21T04:15:56;99858.91;;;19.19
15144;BMP180;7672;50.834;6.286;2022-08-21T04:18:30;99864.84;;;19.21
15144;BMP180;7672;50.834;6.286;2022-08-21T04:21:00;99860.59;;;19.20
15144;BMP180;7672;50.834;6.286;2022-08-21T04:23:30;99863.16;;;19.20
15144;BMP180;7672;50.834;6.286;2022-08-21T04:25:58;99861.41;;;19.20
15144;BMP180;7672;50.834;6.286;2022-08-21T04:28:28;99868.28;;;19.20
15144;BMP180;7672;50.834;6.286;2022-08-21T04:31:09;99868.28;;;19.20
15144;BMP180;7672;50.834;6.286;2022-08-21T04:33:36;99865.75;;;19.18
15144;BMP180;7672;50.834;6.286;2022-08-21T04:36:05;99876.81;;;19.19
15144;BMP180;7672;50.834;6.286;2022-08-21T04:38:35;99860.69;;;19.15
15144;BMP180;7672;50.834;6.286;2022-08-21T04:41:04;99865.78;;;19.17
15144;BMP180;7672;50.834;6.286;2022-08-21T04:43:32;99870.03;;;19.18
15144;BMP180;7672;50.834;6.286;2022-08-21T04:46:05;99870.03;;;19.18
15144;BMP180;7672;50.834;6.286;2022-08-21T04:48:44;99864.06;;;19.17
15144;BMP180;7672;50.834;6.286;2022-08-21T04:51:40;99870.03;;;19.18
15144;BMP180;7672;50.834;6.286;2022-08-21T04:54:14;99857.22;;;19.18
15144;BMP180;7672;50.834;6.286;2022-08-21T04:56:51;99865.72;;;19.20
15144;BMP180;7672;50.834;6.286;2022-08-21T04:59:47;99862.22;;;19.22
15144;BMP180;7672;50.834;6.286;2022-08-21T05:02:21;99852.78;;;19.23
15144;BMP180;7672;50.834;6.286;2022-08-21T05:05:07;99850.94;;;19.27
15144;BMP180;7672;50.834;6.286;2022-08-21T05:07:56;99853.41;;;19.30
15144;BMP180;7672;50.834;6.286;2022-08-21T05:10:41;99859.19;;;19.38
15144;BMP180;7672;50.834;6.286;2022-08-21T05:13:17;99868.34;;;19.45
15144;BMP180;7672;50.834;6.286;2022-08-21T05:15:44;99853.63;;;19.52
15144;BMP180;7672;50.834;6.286;2022-08-21T05:18:14;99851.78;;;19.57
15144;BMP180;7672;50.834;6.286;2022-08-21T05:20:48;99857.63;;;19.62
15144;BMP180;7672;50.834;6.286;2022-08-21T05:23:39;99869.38;;;19.69
15144;BMP180;7672;50.834;6.286;2022-08-21T05:26:31;99867.59;;;19.71
15144;BMP180;7672;50.834;6.286;2022-08-21T05:29:10;99870.97;;;19.73
15144;BMP180;7672;50.834;6.286;2022-08-21T05:31:38;99873.38;;;19.77
15144;BMP180;7672;50.834;6.286;2022-08-21T05:34:18;99875.72;;;19.84
15144;BMP180;7672;50.834;6.286;2022-08-21T05:36:56;99881.59;;;19.88
15144;BMP180;7672;50.834;6.286;2022-08-21T05:39:23;99877.16;;;19.94
15144;BMP180;7672;50.834;6.286;2022-08-21T05:41:50;99875.16;;;20.04
15144;BMP180;7672;50.834;6.286;2022-08-21T05:44:17;99873.88;;;20.17
15144;BMP180;7672;50.834;6.286;2022-08-21T05:46:48;99876.75;;;20.34
15144;BMP180;7672;50.834;6.286;2022-08-21T05:49:22;99876.13;;;20.51
15144;BMP180;7672;50.834;6.286;2022-08-21T05:51:49;99877.19;;;20.70
15144;BMP180;7672;50.834;6.286;2022-08-21T05:54:16;99869.75;;;20.89
15144;BMP180;7672;50.834;6.286;2022-08-21T05:56:43;99874.00;;;21.12
15144;BMP180;7672;50.834;6.286;2022-08-21T05:59:11;99872.38;;;21.34
15144;BMP180;7672;50.834;6.286;2022-08-21T06:01:41;99866.22;;;21.61
15144;BMP180;7672;50.834;6.286;2022-08-21T06:04:09;99872.22;;;21.83
15144;BMP180;7672;50.834;6.286;2022-08-21T06:06:40;99861.88;;;22.06
15144;BMP180;7672;50.834;6.286;2022-08-21T06:09:07;99860.03;;;22.31
15144;BMP180;7672;50.834;6.286;2022-08-21T06:11:34;99860.00;;;22.52
15144;BMP180;7672;50.834;6.286;2022-08-21T06:14:01;99857.38;;;22.73
15144;BMP180;7672;50.834;6.286;2022-08-21T06:16:28;99850.22;;;23.00
15144;BMP180;7672;50.834;6.286;2022-08-21T06:18:55;99853.63;;;23.20
15144;BMP180;7672;50.834;6.286;2022-08-21T06:21:28;99849.22;;;23.40
15144;BMP180;7672;50.834;6.286;2022-08-21T06:23:55;99859.19;;;23.66
15144;BMP180;7672;50.834;6.286;2022-08-21T06:26:22;99859.84;;;23.89
15144;BMP180;7672;50.834;6.286;2022-08-21T06:28:50;99862.84;;;24.16
15144;BMP180;7672;50.834;6.286;2022-08-21T06:31:22;99859.88;;;24.41
15144;BMP180;7672;50.834;6.286;2022-08-21T06:33:49;99872.13;;;24.72
15144;BMP180;7672;50.834;6.286;2022-08-21T06:36:17;99865.38;;;25.01
15144;BMP180;7672;50.834;6.286;2022-08-21T06:38:44;99873.25;;;25.32
15144;BMP180;7672;50.834;6.286;2022-08-21T06:41:19;99868.00;;;25.64
15144;BMP180;7672;50.834;6.286;2022-08-21T06:43:53;99869.56;;;25.99
15144;BMP180;7672;50.834;6.286;2022-08-21T06:46:21;99872.91;;;26.30
15144;BMP180;7672;50.834;6.286;2022-08-21T06:48:48;99869.19;;;26.65
15144;BMP180;7672;50.834;6.286;2022-08-21T06:51:16;99874.00;;;27.00
15144;BMP180;7672;50.834;6.286;2022-08-21T06:53:43;99868.34;;;27.36
15144;BMP180;7672;50.834;6.286;2022-08-21T06:56:10;99869.53;;;27.72
15144;BMP180;7672;50.834;6.286;2022-08-21T06:58:37;99867.28;;;28.06
15144;BMP180;7672;50.834;6.286;2022-08-21T07:01:04;99867.56;;;28.42
15144;BMP180;7672;50.834;6.286;2022-08-21T07:03:39;99873.47;;;28.82
15144;BMP180;7672;50.834;6.286;2022-08-21T07:06:07;99875.44;;;29.29
15144;BMP180;7672;50.834;6.286;2022-08-21T07:08:37;99872.66;;;29.80
15144;BMP180;7672;50.834;6.286;2022-08-21T07:11:16;99864.50;;;30.43
15144;BMP180;7672;50.834;6.286;2022-08-21T07:13:43;99865.16;;;31.14
15144;BMP180;7672;50.834;6.286;2022-08-21T07:16:10;99872.34;;;31.87
15144;BMP180;7672;50.834;6.286;2022-08-21T07:18:37;99869.31;;;32.55
15144;BMP180;7672;50.834;6.286;2022-08-21T07:21:06;99867.69;;;33.24
15144;BMP180;7672;50.834;6.286;2022-08-21T07:23:42;99860.84;;;33.91
15144;BMP180;7672;50.834;6.286;2022-08-21T07:26:15;99862.88;;;34.55
15144;BMP180;7672;50.834;6.286;2022-08-21T07:28:43;99869.53;;;35.14
15144;BMP180;7672;50.834;6.286;2022-08-21T07:31:14;99866.06;;;35.77
15144;BMP180;7672;50.834;6.286;2022-08-21T07:33:42;99868.72;;;36.38
15144;BMP180;7672;50.834;6.286;2022-08-21T07:36:10;99864.91;;;37.01
15144;BMP180;7672;50.834;6.286;2022-08-21T07:38:38;99864.06;;;37.67
15144;BMP180;7672;50.834;6.286;2022-08-21T07:41:18;99873.81;;;38.31
15144;BMP180;7672;50.834;6.286;2022-08-21T07:43:46;99870.16;;;38.96
15144;BMP180;7672;50.834;6.286;2022-08-21T07:46:14;99861.78;;;39.54
15144;BMP180;7672;50.834;6.286;2022-08-21T07:48:41;99866.59;;;40.11
15144;BMP180;7672;50.834;6.286;2022-08-21T07:51:13;99868.34;;;40.63
15144;BMP180;7672;50.834;6.286;2022-08-21T07:53:41;99869.19;;;41.15
15144;BMP180;7672;50.834;6.286;2022-08-21T07:56:08;99863.75;;;41.66
15144;BMP180;7672;50.834;6.286;2022-08-21T07:58:35;99870.47;;;42.18
15144;BMP180;7672;50.834;6.286;2022-08-21T08:01:02;99861.53;;;42.67
15144;BMP180;7672;50.834;6.286;2022-08-21T08:03:29;99859.38;;;43.04
15144;BMP180;7672;50.834;6.286;2022-08-21T08:05:56;99855.88;;;43.38
15144;BMP180;7672;50.834;6.286;2022-08-21T08:08:26;99846.63;;;43.74
15144;BMP180;7672;50.834;6.286;2022-08-21T08:10:59;99854.50;;;44.14
15144;BMP180;7672;50.834;6.286;2022-08-21T08:13:26;99851.28;;;44.57
15144;BMP180;7672;50.834;6.286;2022-08-21T08:15:55;99846.16;;;44.75
15144;BMP180;7672;50.834;6.286;2022-08-21T08:18:25;99850.66;;;44.75
15144;BMP180;7672;50.834;6.286;2022-08-21T08:20:52;99852.31;;;44.63
15144;BMP180;7672;50.834;6.286;2022-08-21T08:23:18;99852.09;;;44.51
15144;BMP180;7672;50.834;6.286;2022-08-21T08:25:48;99851.91;;;44.53
15144;BMP180;7672;50.834;6.286;2022-08-21T08:28:15;99861.75;;;44.52
15144;BMP180;7672;50.834;6.286;2022-08-21T08:30:45;99852.53;;;44.55
15144;BMP180;7672;50.834;6.286;2022-08-21T08:33:13;99844.31;;;44.63
15144;BMP180;7672;50.834;6.286;2022-08-21T08:35:45;99849.25;;;44.72
15144;BMP180;7672;50.834;6.286;2022-08-21T08:38:22;99836.47;;;44.93
15144;BMP180;7672;50.834;6.286;2022-08-21T08:41:16;99835.19;;;45.22
15144;BMP180;7672;50.834;6.286;2022-08-21T08:44:06;99838.78;;;45.47
15144;BMP180;7672;50.834;6.286;2022-08-21T08:46:53;99838.28;;;45.69
15144;BMP180;7672;50.834;6.286;2022-08-21T08:49:49;99840.69;;;45.83
15144;BMP180;7672;50.834;6.286;2022-08-21T08:52:59;99837.50;;;45.99
15144;BMP180;7672;50.834;6.286;2022-08-21T08:55:43;99842.75;;;45.81
15144;BMP180;7672;50.834;6.286;2022-08-21T08:58:46;99842.28;;;45.47
15144;BMP180;7672;50.834;6.286;2022-08-21T09:01:20;99835.56;;;45.38
15144;BMP180;7672;50.834;6.286;2022-08-21T09:04:04;99832.88;;;45.38
15144;BMP180;7672;50.834;6.286;2022-08-21T09:07:23;99834.88;;;45.49
15144;BMP180;7672;50.834;6.286;2022-08-21T09:10:22;99833.44;;;45.47
15144;BMP180;7672;50.834;6.286;2022-08-21T09:19:01;99823.88;;;46.38
15144;BMP180;7672;50.834;6.286;2022-08-21T09:22:13;99822.78;;;46.70
15144;BMP180;7672;50.834;6.286;2022-08-21T09:28:34;99829.66;;;47.19
15144;BMP180;7672;50.834;6.286;2022-08-21T09:31:35;99828.69;;;47.32
15144;BMP180;7672;50.834;6.286;2022-08-21T09:34:12;72341.34;;;47.52
15144;BMP180;7672;50.834;6.286;2022-08-21T09:36:51;99819.88;;;47.60
15144;BMP180;7672;50.834;6.286;2022-08-21T09:39:58;99814.81;;;47.53
15144;BMP180;7672;50.834;6.286;2022-08-21T09:42:33;99818.34;;;47.53
15144;BMP180;7672;50.834;6.286;2022-08-21T09:45:17;99830.19;;;47.46
15144;BMP180;7672;50.834;6.286;2022-08-21T09:47:45;99824.22;;;47.44
15144;BMP180;7672;50.834;6.286;2022-08-21T09:50:25;99827.25;;;47.47
15144;BMP180;7672;50.834;6.286;2022-08-21T09:52:59;99824.06;;;47.56
15144;BMP180;7672;50.834;6.286;2022-08-21T09:55:38;99811.75;;;47.67
15144;BMP180;7672;50.834;6.286;2022-08-21T09:58:36;99811.75;;;47.67
15144;BMP180;7672;50.834;6.286;2022-08-21T10:01:11;99805.13;;;47.69
15144;BMP180;7672;50.834;6.286;2022-08-21T10:03:39;99802.50;;;47.52
15144;BMP180;7672;50.834;6.286;2022-08-21T10:06:08;99800.88;;;47.33
15144;BMP180;7672;50.834;6.286;2022-08-21T10:08:40;99802.16;;;47.12
15144;BMP180;7672;50.834;6.286;2022-08-21T10:11:25;99799.59;;;46.82
15144;BMP180;7672;50.834;6.286;2022-08-21T10:14:20;99809.59;;;46.50
15144;BMP180;7672;50.834;6.286;2022-08-21T10:17:11;99794.06;;;46.10
15144;BMP180;7672;50.834;6.286;2022-08-21T10:22:26;99791.69;;;45.58
15144;BMP180;7672;50.834;6.286;2022-08-21T10:25:28;99805.59;;;45.23
15144;BMP180;7672;50.834;6.286;2022-08-21T10:31:14;99786.66;;;44.81
15144;BMP180;7672;50.834;6.286;2022-08-21T10:34:17;99786.66;;;44.81
15144;BMP180;7672;50.834;6.286;2022-08-21T10:40:20;99793.88;;;44.42
15144;BMP180;7672;50.834;6.286;2022-08-21T10:55:36;99788.59;;;45.18
15144;BMP180;7672;50.834;6.286;2022-08-21T10:58:25;99771.09;;;45.35
15144;BMP180;7672;50.834;6.286;2022-08-21T11:01:07;99777.59;;;45.45
15144;BMP180;7672;50.834;6.286;2022-08-21T11:08:15;99773.91;;;45.46
15144;BMP180;7672;50.834;6.286;2022-08-21T11:10:58;99776.25;;;45.60
15144;BMP180;7672;50.834;6.286;2022-08-21T11:13:49;99778.72;;;45.68
15144;BMP180;7672;50.834;6.286;2022-08-21T11:16:41;99762.84;;;45.80
15144;BMP180;7672;50.834;6.286;2022-08-21T11:19:53;99771.22;;;45.83
15144;BMP180;7672;50.834;6.286;2022-08-21T11:22:56;99769.53;;;45.89
15144;BMP180;7672;50.834;6.286;2022-08-21T11:25:34;99763.38;;;45.88
15144;BMP180;7672;50.834;6.286;2022-08-21T11:28:34;99774.94;;;45.82
15144;BMP180;7672;50.834;6.286;2022-08-21T11:37:03;99773.63;;;45.54
15144;BMP180;7672;50.834;6.286;2022-08-21T11:39:57;99775.63;;;45.34
15144;BMP180;7672;50.834;6.286;2022-08-21T11:42:48;99756.78;;;45.16
15144;BMP180;7672;50.834;6.286;2022-08-21T11:45:36;99761.00;;;44.80
15144;BMP180;7672;50.834;6.286;2022-08-21T11:48:26;99773.16;;;44.44
15144;BMP180;7672;50.834;6.286;2022-08-21T11:51:05;99762.72;;;44.17
15144;BMP180;7672;50.834;6.286;2022-08-21T11:53:55;99762.28;;;43.94
15144;BMP180;7672;50.834;6.286;2022-08-21T11:56:35;99756.88;;;43.68
15144;BMP180;7672;50.834;6.286;2022-08-21T11:59:32;99762.09;;;43.29
15144;BMP180;7672;50.834;6.286;2022-08-21T12:02:15;99750.47;;;42.96
15144;BMP180;7672;50.834;6.286;2022-08-21T12:04:58;99749.69;;;42.62
15144;BMP180;7672;50.834;6.286;2022-08-21T12:07:42;99752.66;;;42.26
15144;BMP180;7672;50.834;6.286;2022-08-21T12:10:17;99753.56;;;41.91
15144;BMP180;7672;50.834;6.286;2022-08-21T12:12:48;99754.19;;;41.51
15144;BMP180;7672;50.834;6.286;2022-08-21T12:18:23;99752.28;;;40.59
15144;BMP180;7672;50.834;6.286;2022-08-21T12:21:25;99753.50;;;40.20
15144;BMP180;7672;50.834;6.286;2022-08-21T12:24:16;99750.94;;;39.89
15144;BMP180;7672;50.834;6.286;2022-08-21T12:29:26;99765.59;;;39.39
15144;BMP180;7672;50.834;6.286;2022-08-21T12:32:19;99761.41;;;39.14
15144;BMP180;7672;50.834;6.286;2022-08-21T12:35:07;99751.09;;;38.89
15144;BMP180;7672;50.834;6.286;2022-08-21T12:40:47;99753.66;;;38.67
15144;BMP180;7672;50.834;6.286;2022-08-21T12:43:23;99757.78;;;38.61
15144;BMP180;7672;50.834;6.286;2022-08-21T12:45:51;99746.53;;;38.51
15144;BMP180;7672;50.834;6.286;2022-08-21T12:51:23;99749.25;;;38.36
15144;BMP180;7672;50.834;6.286;2022-08-21T12:53:58;99745.28;;;38.24
15144;BMP180;7672;50.834;6.286;2022-08-21T12:56:32;99742.16;;;38.12
15144;BMP180;7672;50.834;6.286;2022-08-21T12:59:11;99740.16;;;37.98
15144;BMP180;7672;50.834;6.286;2022-08-21T13:01:48;99736.88;;;37.88
15144;BMP180;7672;50.834;6.286;2022-08-21T13:04:38;99733.88;;;37.75
15144;BMP180;7672;50.834;6.286;2022-08-21T13:07:11;99731.22;;;37.68
15144;BMP180;7672;50.834;6.286;2022-08-21T13:09:51;99723.78;;;37.55
15144;BMP180;7672;50.834;6.286;2022-08-21T13:12:22;99736.13;;;37.47
15144;BMP180;7672;50.834;6.286;2022-08-21T13:14:59;99743.53;;;37.35
15144;BMP180;7672;50.834;6.286;2022-08-21T13:17:34;99735.44;;;37.29
15144;BMP180;7672;50.834;6.286;2022-08-21T13:20:22;99742.47;;;37.20
15144;BMP180;7672;50.834;6.286;2022-08-21T13:22:49;99735.84;;;37.16
15144;BMP180;7672;50.834;6.286;2022-08-21T13:25:20;99739.81;;;37.12
15144;BMP180;7672;50.834;6.286;2022-08-21T13:28:07;99727.88;;;37.01
15144;BMP180;7672;50.834;6.286;2022-08-21T13:30:42;99725.59;;;36.98
15144;BMP180;7672;50.834;6.286;2022-08-21T13:33:13;99732.00;;;36.95
15144;BMP180;7672;50.834;6.286;2022-08-21T13:38:30;99729.78;;;36.83
15144;BMP180;7672;50.834;6.286;2022-08-21T13:41:04;99729.72;;;36.75
15144;BMP180;7672;50.834;6.286;2022-08-21T13:43:36;99717.81;;;36.63
15144;BMP180;7672;50.834;6.286;2022-08-21T13:46:10;99731.53;;;36.49
15144;BMP180;7672;50.834;6.286;2022-08-21T13:48:39;99726.47;;;36.30
15144;BMP180;7672;50.834;6.286;2022-08-21T13:51:06;99718.91;;;36.10
15144;BMP180;7672;50.834;6.286;2022-08-21T13:53:47;99727.25;;;35.88
15144;BMP180;7672;50.834;6.286;2022-08-21T13:56:44;99728.03;;;35.63
15144;BMP180;7672;50.834;6.286;2022-08-21T13:59:12;99721.28;;;35.43
15144;BMP180;7672;50.834;6.286;2022-08-21T14:01:55;99726.91;;;35.21
15144;BMP180;7672;50.834;6.286;2022-08-21T14:04:54;99716.78;;;35.00
15144;BMP180;7672;50.834;6.286;2022-08-21T14:07:31;99720.72;;;34.86
15144;BMP180;7672;50.834;6.286;2022-08-21T14:10:21;99711.50;;;34.73
15144;BMP180;7672;50.834;6.286;2022-08-21T14:13:06;99714.44;;;34.60
15144;BMP180;7672;50.834;6.286;2022-08-21T14:15:35;99722.22;;;34.53
15144;BMP180;7672;50.834;6.286;2022-08-21T14:18:26;99725.13;;;34.40
15144;BMP180;7672;50.834;6.286;2022-08-21T14:21:07;99722.53;;;34.31
15144;BMP180;7672;50.834;6.286;2022-08-21T14:23:38;99720.88;;;34.20
15144;BMP180;7672;50.834;6.286;2022-08-21T14:26:09;99726.16;;;34.11
15144;BMP180;7672;50.834;6.286;2022-08-21T14:28:48;99729.78;;;34.00
15144;BMP180;7672;50.834;6.286;2022-08-21T14:31:33;99725.84;;;33.95
15144;BMP180;7672;50.834;6.286;2022-08-21T14:34:17;99719.09;;;33.92
15144;BMP180;7672;50.834;6.286;2022-08-21T14:37:06;99717.31;;;33.93
15144;BMP180;7672;50.834;6.286;2022-08-21T14:39:37;99720.09;;;34.01
15144;BMP180;7672;50.834;6.286;2022-08-21T14:42:26;99714.44;;;34.05
15144;BMP180;7672;50.834;6.286;2022-08-21T14:45:04;99716.34;;;34.13
15144;BMP180;7672;50.834;6.286;2022-08-21T14:47:51;99712.34;;;34.18
15144;BMP180;7672;50.834;6.286;2022-08-21T14:50:19;99711.66;;;34.26
15144;BMP180;7672;50.834;6.286;2022-08-21T14:53:14;99718.09;;;34.31
15144;BMP180;7672;50.834;6.286;2022-08-21T14:56:00;99716.31;;;34.32
15144;BMP180;7672;50.834;6.286;2022-08-21T14:59:08;99705.56;;;34.25
15144;BMP180;7672;50.834;6.286;2022-08-21T15:01:48;99713.97;;;34.29
15144;BMP180;7672;50.834;6.286;2022-08-21T15:04:16;99710.28;;;34.22
15144;BMP180;7672;50.834;6.286;2022-08-21T15:06:48;99710.69;;;34.17
15144;BMP180;7672;50.834;6.286;2022-08-21T15:09:15;99714.72;;;34.12
15144;BMP180;7672;50.834;6.286;2022-08-21T15:11:42;99705.59;;;34.06
15144;BMP180;7672;50.834;6.286;2022-08-21T15:14:19;99706.03;;;34.02
15144;BMP180;7672;50.834;6.286;2022-08-21T15:17:39;99711.53;;;33.89
15144;BMP180;7672;50.834;6.286;2022-08-21T15:20:14;99703.09;;;33.86
15144;BMP180;7672;50.834;6.286;2022-08-21T15:22:42;99695.25;;;33.77
15144;BMP180;7672;50.834;6.286;2022-08-21T15:25:25;99692.63;;;33.67
15144;BMP180;7672;50.834;6.286;2022-08-21T15:28:09;99689.44;;;33.54
15144;BMP180;7672;50.834;6.286;2022-08-21T15:30:38;99696.19;;;33.47
15144;BMP180;7672;50.834;6.286;2022-08-21T15:33:06;99689.97;;;33.39
15144;BMP180;7672;50.834;6.286;2022-08-21T15:35:35;99694.22;;;33.30
15144;BMP180;7672;50.834;6.286;2022-08-21T15:38:07;99694.06;;;33.22
15144;BMP180;7672;50.834;6.286;2022-08-21T15:40:43;99691.56;;;33.12
15144;BMP180;7672;50.834;6.286;2022-08-21T15:43:54;99697.44;;;32.95
15144;BMP180;7672;50.834;6.286;2022-08-21T15:47:12;99688.56;;;32.77
15144;BMP180;7672;50.834;6.286;2022-08-21T15:49:42;99694.44;;;32.69
15144;BMP180;7672;50.834;6.286;2022-08-21T15:52:53;99694.09;;;32.54
15144;BMP180;7672;50.834;6.286;2022-08-21T15:55:24;99695.41;;;32.48
15144;BMP180;7672;50.834;6.286;2022-08-21T15:57:52;99697.00;;;32.40
15144;BMP180;7672;50.834;6.286;2022-08-21T16:00:27;99695.19;;;32.31
15144;BMP180;7672;50.834;6.286;2022-08-21T16:02:58;99700.94;;;32.25
15144;BMP180;7672;50.834;6.286;2022-08-21T16:05:27;99701.81;;;32.14
15144;BMP180;7672;50.834;6.286;2022-08-21T16:07:54;99700.69;;;32.07
15144;BMP180;7672;50.834;6.286;2022-08-21T16:10:25;99695.47;;;31.96